Aérodrome :
LOGIN :

S'inscrire | Disclaimer

   EN    FR    IT 

 










Légende :    VFR   VFR Marginal   IFR   IFR Intensif   IFR Très Intensif
Visi : 
Plafond : 
>= 8 km
>= 3000ft
5 à 8 km
1000 à 3000 ft
1500m à 5 km
500 à 1000 ft
800 à 1500m
200 à 500 ft
< 800m
< 200 ft
Symboles :   Orages  Brouillard  Fortes neiges  Fortes précipitations  Vent > 20 kt
SIGMETs :   Divers  Orages  Givrage  Turbulence  Onde Orograph.  Cendres Volcan.







- Altitude de l'aérodrome : 83 ft
- Code IATA : LHR
- Voir les cartes d'approche


EGLL - London Heathrow

DERNIER METAR :
  • 250420Z AUTO 25008KT 9999 FEW047 08/07 Q1011 NOSIG

METARs EXPIRÉS :
  • 250350Z AUTO 26009KT 9999 BKN045 09/07 Q1011 NOSIG
  • 250320Z AUTO 27009KT 9999 SCT045 08/07 Q1011 NOSIG
  • 250250Z AUTO 27009KT 9999 NCD 09/06 Q1010 NOSIG
  • 250220Z AUTO 28010KT 9999 SCT040 09/06 Q1010 NOSIG
  • 250150Z AUTO 27010KT 9999 BKN036 10/07 Q1010 NOSIG

TAF TAF EGLL
Valide du 25 à 00h jusqu'au 26 à 06h UTC


242255Z 2500/2606 26012KT 9999 BKN012
BECMG 2500/2502 BKN030
TEMPO 2510/2521 26016G26KT 7000 SHRA
PROB30
TEMPO 2514/2520 4000 +SHRA
Pas de NOTAMs connus pour ce terrain.



MET'MAP, la Météo Aéronautique d'un coup d'oeil ! - Copyright ORBIFLY Décembre 2007 - Disclaimer

ORBIFLY MET'MAP TEAM :

Programmation & Développement : Alexandra Zaïnal
Conception & Développement : Baudouin d'Aumeries
Co-Programmation & Développement : Marc-Olivier Méhu
Soutien technique & logistique : Manuel Goepfert

Contact : metmap@orbifly.com




SOURCES & CREDITS :

   NOAA